Time;durP1;ratioP1;P1;durP2;ratioP2;P2;SDS_P1;SDS_P2;PMS_P1;PMS_P2;Temp;Humidity;BMP_temperature;BMP_pressure;BME280_temperature;BME280_humidity;BME280_pressure;Samples;Min_cycle;Max_cycle;Signal;HPM_P1;HPM_P2
2022/09/04 00:01:08;;;;;;;8.33;7.73;;;;;;;18.01;100.00;77998.16;5091130;28;20195;-61
2022/09/04 00:03:47;;;;;;;8.60;8.03;;;;;;;18.13;100.00;80000.16;5091286;28;20203;-62
2022/09/04 00:06:17;;;;;;;8.10;7.70;;;;;;;18.08;100.00;81318.34;5091112;28;20188;-61
2022/09/04 00:08:56;;;;;;;9.10;8.50;;;;;;;17.97;100.00;79978.34;5091591;28;20212;-61
2022/09/04 00:11:32;;;;;;;8.70;8.30;;;;;;;17.94;100.00;76334.00;5095036;28;20590;-62
2022/09/04 00:14:03;;;;;;;8.67;8.27;;;;;;;17.80;100.00;66410.72;5094847;28;20188;-62
2022/09/04 00:16:39;;;;;;;8.43;7.97;;;;;;;17.75;100.00;63768.41;5094634;28;20230;-61
2022/09/04 00:19:14;;;;;;;9.03;8.27;;;;;;;17.59;100.00;57498.72;5094622;28;20246;-61
2022/09/04 00:21:48;;;;;;;9.37;8.87;;;;;;;17.44;100.00;52557.19;5094887;28;20206;-62
2022/09/04 00:24:17;;;;;;;9.10;8.70;;;;;;;17.42;100.00;48619.41;5094766;28;20559;-62
2022/09/04 00:26:53;;;;;;;9.40;9.00;;;;;;;17.39;100.00;43376.28;5094495;28;20184;-61
2022/09/04 00:29:29;;;;;;;9.87;9.27;;;;;;;17.39;100.00;42394.22;5094716;28;20554;-62
2022/09/04 00:32:02;;;;;;;10.33;9.73;;;;;;;17.33;100.00;41408.78;5094655;28;20280;-61
2022/09/04 00:34:51;;;;;;;10.43;9.63;;;;;;;17.37;100.00;41084.63;5094315;28;20208;-62
2022/09/04 00:37:23;;;;;;;9.00;8.57;;;;;;;17.28;100.00;40751.16;5091309;28;20206;-62
2022/09/04 00:39:56;;;;;;;10.00;9.40;;;;;;;17.34;100.00;40755.81;5094363;28;20214;-61
2022/09/04 00:42:40;;;;;;;9.93;9.10;;;;;;;17.46;100.00;44363.31;5094118;28;20223;-60
2022/09/04 00:45:19;;;;;;;9.03;8.63;;;;;;;17.48;100.00;47641.13;5094630;28;20179;-61
2022/09/04 00:48:15;;;;;;;9.03;8.63;;;;;;;17.40;100.00;46978.72;5093827;28;20231;-60
2022/09/04 00:51:00;;;;;;;9.83;9.20;;;;;;;17.34;100.00;44681.75;5094047;28;20192;-61
2022/09/04 00:53:44;;;;;;;10.13;9.53;;;;;;;17.33;100.00;45991.13;5093936;28;20184;-61
2022/09/04 00:56:30;;;;;;;9.77;9.20;;;;;;;17.32;100.00;43371.34;5094397;28;20666;-62
2022/09/04 00:59:06;;;;;;;10.30;9.60;;;;;;;17.40;100.00;45013.88;5094430;28;20208;-61
2022/09/04 01:01:35;;;;;;;11.27;10.47;;;;;;;17.36;100.00;44355.94;5093833;28;20188;-61
2022/09/04 01:04:30;;;;;;;9.80;9.37;;;;;;;17.25;100.00;39441.78;5094094;28;20188;-61
2022/09/04 01:07:22;;;;;;;10.57;10.00;;;;;;;17.20;100.00;37804.69;5094016;28;20597;-61
2022/09/04 01:10:18;;;;;;;10.83;10.33;;;;;;;17.17;100.00;36822.63;5093648;28;20237;-61
2022/09/04 01:12:51;;;;;;;10.67;10.27;;;;;;;16.98;100.00;33221.72;5093631;28;20226;-61
2022/09/04 01:15:25;;;;;;;11.17;10.67;;;;;;;17.08;100.00;31923.41;5093819;28;20188;-60
2022/09/04 01:18:03;;;;;;;10.97;10.37;;;;;;;16.96;100.00;29635.44;5093830;28;20659;-61
2022/09/04 01:20:47;;;;;;;10.30;9.60;;;;;;;17.06;100.00;28338.22;5093099;28;20240;-62
2022/09/04 01:23:31;;;;;;;11.13;10.47;;;;;;;16.80;100.00;27674.13;5093722;28;20527;-60
2022/09/04 01:26:08;;;;;;;11.90;11.10;;;;;;;16.92;100.00;25727.47;5093725;28;20253;-61
2022/09/04 01:28:48;;;;;;;10.77;10.10;;;;;;;16.95;100.00;24752.81;5093335;28;20295;-61
2022/09/04 01:31:25;;;;;;;11.07;10.57;;;;;;;16.79;100.00;24745.97;5093276;28;20275;-61
2022/09/04 01:34:02;;;;;;;10.87;10.07;;;;;;;16.90;100.00;23775.47;5093291;28;20194;-62
2022/09/04 01:36:38;;;;;;;10.67;10.27;;;;;;;16.93;100.00;23776.38;5093603;28;20499;-62
2022/09/04 01:39:05;;;;;;;10.93;10.43;;;;;;;16.94;100.00;26053.75;5093257;28;20226;-61
2022/09/04 01:41:38;;;;;;;10.07;9.67;;;;;;;16.98;100.00;25079.69;5093063;28;20184;-61
2022/09/04 01:44:08;;;;;;;10.50;10.03;;;;;;;17.03;100.00;25081.75;5092978;28;20184;-61
2022/09/04 01:46:51;;;;;;;11.37;10.67;;;;;;;17.06;100.00;27035.91;5092935;28;20712;-61
2022/09/04 01:49:27;;;;;;;10.57;9.90;;;;;;;16.98;100.00;29962.25;5092911;28;20188;-61
2022/09/04 01:52:03;;;;;;;10.63;10.13;;;;;;;16.99;100.00;26381.31;5092909;28;20194;-62
2022/09/04 01:54:46;;;;;;;10.73;10.27;;;;;;;16.85;100.00;26049.47;5092799;28;20214;-60
2022/09/04 01:57:31;;;;;;;10.40;9.93;;;;;;;16.99;100.00;26381.31;5093058;28;20184;-62
2022/09/04 02:00:07;;;;;;;10.43;10.03;;;;;;;16.97;100.00;29636.25;5092565;28;20208;-61
2022/09/04 02:02:52;;;;;;;10.57;9.97;;;;;;;17.10;100.00;30946.38;5092877;28;20194;-61
2022/09/04 02:05:26;;;;;;;10.93;10.43;;;;;;;17.11;100.00;32576.94;5092612;28;20180;-61
2022/09/04 02:08:05;;;;;;;11.03;10.40;;;;;;;16.99;100.00;36158.06;5092498;28;20178;-61
2022/09/04 02:10:38;;;;;;;9.87;9.47;;;;;;;17.09;100.00;32902.16;5092838;28;20180;-61
2022/09/04 02:13:16;;;;;;;10.10;9.80;;;;;;;17.10;100.00;36165.44;5092750;28;20191;-61
2022/09/04 02:15:52;;;;;;;10.40;9.67;;;;;;;17.15;100.00;36821.31;5092983;28;20249;-61
2022/09/04 02:18:26;;;;;;;10.10;9.60;;;;;;;17.23;100.00;40420.63;5092235;28;20390;-62
2022/09/04 02:21:01;;;;;;;10.93;10.10;;;;;;;17.16;100.00;40416.00;5092599;28;20191;-61
2022/09/04 02:23:36;;;;;;;10.90;10.30;;;;;;;17.03;100.00;40079.59;5092479;28;20282;-62
2022/09/04 02:26:09;;;;;;;10.47;10.03;;;;;;;17.19;100.00;39764.41;5092586;28;20531;-62
2022/09/04 02:28:49;;;;;;;10.33;9.93;;;;;;;17.06;100.00;39428.22;5092111;28;20188;-61
2022/09/04 02:31:27;;;;;;;11.13;10.53;;;;;;;17.05;100.00;40081.00;5092416;28;20652;-62
2022/09/04 02:34:01;;;;;;;10.70;10.13;;;;;;;17.07;100.00;39429.25;5092494;28;20188;-61
2022/09/04 02:36:35;;;;;;;11.00;10.60;;;;;;;16.97;100.00;36809.56;5092404;28;20593;-62
2022/09/04 02:39:13;;;;;;;12.33;11.63;;;;;;;16.89;100.00;38110.75;5091960;28;20211;-61
2022/09/04 02:41:50;;;;;;;11.13;10.53;;;;;;;16.78;100.00;38429.47;5092234;28;20702;-62
2022/09/04 02:44:40;;;;;;;10.83;10.23;;;;;;;16.90;100.00;38764.53;5092033;28;20265;-61
2022/09/04 02:47:17;;;;;;;11.13;10.40;;;;;;;16.98;100.00;40076.06;5091812;28;20236;-61
2022/09/04 02:49:54;;;;;;;11.50;10.93;;;;;;;16.94;100.00;36807.59;5092094;28;20298;-61
2022/09/04 02:52:36;;;;;;;11.53;10.50;;;;;;;16.98;100.00;42364.03;5092088;28;20207;-61
2022/09/04 02:55:27;;;;;;;9.90;9.50;;;;;;;17.05;100.00;44331.84;5091821;28;20184;-61
2022/09/04 02:58:07;;;;;;;10.87;10.17;;;;;;;17.10;100.00;46627.47;5091698;28;20193;-61
2022/09/04 03:00:46;;;;;;;10.90;10.27;;;;;;;17.10;100.00;49247.66;5091661;28;20277;-62
2022/09/04 03:03:18;;;;;;;11.10;10.50;;;;;;;17.11;100.00;49904.41;5091752;28;20188;-61
2022/09/04 03:05:51;;;;;;;10.17;9.40;;;;;;;17.11;100.00;59093.94;5092102;28;20237;-61
2022/09/04 03:08:22;;;;;;;10.63;9.87;;;;;;;17.14;100.00;65348.09;5091619;28;20188;-62
2022/09/04 03:10:56;;;;;;;10.20;9.40;;;;;;;17.27;100.00;66350.34;5091936;28;20571;-61
2022/09/04 03:13:30;;;;;;;9.60;9.17;;;;;;;17.24;100.00;66676.34;5091818;28;20187;-62
2022/09/04 03:16:05;;;;;;;10.43;9.90;;;;;;;17.21;100.00;66014.66;5091817;28;20212;-61
2022/09/04 03:18:55;;;;;;;10.03;9.20;;;;;;;17.23;100.00;71951.16;5091809;28;20260;-61
2022/09/04 03:21:29;;;;;;;10.00;9.23;;;;;;;17.36;100.00;74938.16;5091494;28;20194;-62
2022/09/04 03:24:02;;;;;;;10.60;9.50;;;;;;;17.40;100.00;73952.38;5091475;28;20184;-61
2022/09/04 03:26:32;;;;;;;9.93;9.33;;;;;;;17.45;100.00;79908.81;5091764;28;20206;-61
2022/09/04 03:29:08;;;;;;;9.77;9.37;;;;;;;17.33;100.00;83202.56;5091617;28;20275;-62
2022/09/04 03:31:45;;;;;;;9.40;8.90;;;;;;;17.32;100.00;82869.38;5091248;28;20179;-62
2022/09/04 03:34:32;;;;;;;9.50;9.10;;;;;;;17.35;100.00;85523.97;5091390;28;20180;-61
2022/09/04 03:37:24;;;;;;;8.87;8.47;;;;;;;17.28;100.00;89491.66;5091543;28;20195;-62
2022/09/04 03:40:04;;;;;;;9.47;9.03;;;;;;;17.25;100.00;94133.50;5083854;28;20220;-61
2022/09/04 03:42:44;;;;;;;9.10;8.50;;;;;;;17.09;100.00;102750.31;5091333;28;20188;-61
2022/09/04 03:45:21;;;;;;;9.50;9.10;;;;;;;17.20;100.00;97780.31;5094207;28;20186;-61
2022/09/04 03:48:05;;;;;;;8.97;8.57;;;;;;;17.25;100.00;96790.56;5095133;28;20235;-61
2022/09/04 03:50:38;;;;;;;8.70;8.40;;;;;;;17.22;100.00;106770.25;5095403;28;20180;-64
2022/09/04 03:53:15;;;;;;;8.47;8.17;;;;;;;17.23;100.00;119126.03;5095206;28;20611;-61
2022/09/04 03:56:05;;;;;;;8.90;8.30;;;;;;;17.20;100.00;115777.94;5095200;28;20179;-61
2022/09/04 03:58:43;;;;;;;8.90;8.10;;;;;;;17.27;100.00;125160.34;5095422;28;20180;-61
2022/09/04 04:01:18;;;;;;;8.40;7.87;;;;;;;17.40;100.00;132232.97;5094935;28;20208;-61
2022/09/04 04:04:05;;;;;;;8.40;8.10;;;;;;;17.42;100.00;137613.59;5095304;28;20693;-62
2022/09/04 04:06:42;;;;;;;9.40;8.83;;;;;;;17.46;100.00;141006.47;5094962;28;20217;-61
2022/09/04 04:09:35;;;;;;;8.10;7.80;;;;;;;17.43;100.00;146023.84;5095516;28;20273;-61
2022/09/04 04:12:19;;;;;;;8.90;8.27;;;;;;;17.17;100.00;150182.34;5094785;28;20195;-61
2022/09/04 04:15:07;;;;;;;9.63;8.83;;;;;;;17.54;100.00;150446.41;5094736;28;20184;-61
2022/09/04 04:17:56;;;;;;;8.60;8.30;;;;;;;17.49;100.00;150433.69;5094978;28;20184;-61
2022/09/04 04:20:36;;;;;;;8.33;7.83;;;;;;;17.63;100.00;150469.34;5093668;28;20736;-60
2022/09/04 04:23:39;;;;;;;7.63;7.33;;;;;;;17.81;100.00;150513.84;5094674;28;20196;-61
2022/09/04 04:26:10;;;;;;;7.43;6.90;;;;;;;17.81;100.00;150513.84;5084364;28;20577;-62
2022/09/04 04:28:58;;;;;;;7.13;6.60;;;;;;;17.97;100.00;150553.22;5094751;28;20211;-61
2022/09/04 04:31:39;;;;;;;7.67;6.80;;;;;;;18.34;100.00;150647.31;5092513;28;20551;-60
2022/09/04 04:34:19;;;;;;;6.97;6.57;;;;;;;18.50;100.00;150686.75;5094474;28;20184;-61
2022/09/04 04:36:55;;;;;;;7.60;7.10;;;;;;;18.51;100.00;150690.53;5094372;28;20184;-61
2022/09/04 04:39:31;;;;;;;6.33;6.13;;;;;;;18.59;100.00;150710.94;5094518;28;20219;-61
2022/09/04 04:42:12;;;;;;;6.83;6.37;;;;;;;18.78;100.00;150758.03;5094633;28;20206;-62
2022/09/04 04:48:20;;;;;;;7.40;7.00;;;;;;;20.34;100.00;151151.38;5070008;28;20281;-62
2022/09/04 04:50:59;;;;;;;5.20;5.00;;;;;;;20.61;100.00;151217.59;5094119;28;20186;-62
2022/09/04 04:53:33;;;;;;;6.37;5.87;;;;;;;19.82;100.00;151020.16;5094174;28;20211;-61
2022/09/04 04:56:05;;;;;;;5.57;5.37;;;;;;;20.50;100.00;151192.09;5093158;28;20185;-61
2022/09/04 04:58:46;;;;;;;5.53;5.13;;;;;;;20.66;100.00;151231.63;5094227;28;20192;-60
2022/09/04 05:01:25;;;;;;;5.23;4.60;;;;;;;20.87;100.00;151283.84;5093821;28;20211;-61
2022/09/04 05:04:06;;;;;;;5.03;4.70;;;;;;;21.96;100.00;151559.19;5093829;28;20186;-63
2022/09/04 05:06:41;;;;;;;4.33;4.17;;;;;;;22.66;100.00;151736.41;5094365;28;20222;-61
2022/09/04 05:09:16;;;;;;;4.20;4.10;;;;;;;23.72;100.00;152001.94;5093744;28;20187;-62
2022/09/04 05:11:52;;;;;;;3.80;3.63;;;;;;;23.64;100.00;151982.75;5093903;28;20287;-62
2022/09/04 05:14:34;;;;;;;4.72;4.50;;;;;;;24.07;100.00;152092.53;5093847;28;20655;-63
2022/09/04 05:17:12;;;;;;;4.10;4.00;;;;;;;23.63;100.00;151980.22;5093671;28;20184;-62
2022/09/04 05:19:45;;;;;;;3.97;3.75;;;;;;;23.92;100.00;152054.25;5093796;28;20260;-61
2022/09/04 05:22:18;;;;;;;5.28;4.78;;;;;;;25.28;100.00;152396.59;5093514;28;20180;-61
2022/09/04 05:24:55;;;;;;;4.53;4.22;;;;;;;26.05;94.27;152592.19;5093661;28;20192;-62
2022/09/04 05:27:40;;;;;;;3.75;3.65;;;;;;;26.33;89.21;152662.53;5093594;28;20195;-62
2022/09/04 05:30:13;;;;;;;3.72;3.63;;;;;;;25.59;94.20;152474.63;5093364;28;20187;-61
2022/09/04 05:32:50;;;;;;;3.75;3.50;;;;;;;25.46;98.71;152442.63;5093552;28;20200;-61
2022/09/04 05:35:25;;;;;;;4.20;4.00;;;;;;;24.30;100.00;152150.06;5093394;28;20283;-61
2022/09/04 05:38:01;;;;;;;4.95;4.45;;;;;;;24.38;100.00;152169.19;5093447;28;20184;-62
2022/09/04 05:40:38;;;;;;;4.53;4.30;;;;;;;25.85;100.00;152542.31;5093077;28;20306;-61
2022/09/04 05:43:19;;;;;;;4.90;4.65;;;;;;;26.90;92.24;152805.81;5093379;28;20706;-60
2022/09/04 05:45:58;;;;;;;4.18;3.90;;;;;;;28.09;83.23;153107.84;5092914;28;20286;-62
2022/09/04 05:48:31;;;;;;;8.52;4.03;;;;;;;29.29;75.23;153412.69;5093434;28;20215;-62
2022/09/04 05:51:12;;;;;;;4.35;4.15;;;;;;;29.37;71.68;153433.19;5092849;28;20176;-61
2022/09/04 05:53:46;;;;;;;4.55;4.35;;;;;;;29.42;70.95;153446.00;5092830;28;20195;-61
2022/09/04 05:56:38;;;;;;;4.78;4.32;;;;;;;27.47;83.90;152951.69;5093238;28;20249;-61
2022/09/04 05:59:28;;;;;;;5.15;4.80;;;;;;;27.80;86.11;153033.56;5092769;28;20194;-62
2022/09/04 06:02:23;;;;;;;4.45;4.28;;;;;;;26.33;95.17;152663.81;5048728;28;20195;-62
2022/09/04 06:05:12;;;;;;;4.68;4.45;;;;;;;26.67;94.51;152749.50;5092824;28;20228;-62
2022/09/04 06:07:50;;;;;;;4.50;4.30;;;;;;;27.72;89.30;153014.38;5092559;28;20184;-62
2022/09/04 06:10:24;;;;;;;5.20;4.78;;;;;;;28.68;80.50;153256.38;5092719;28;20180;-62
2022/09/04 06:13:28;;;;;;;4.88;4.63;;;;;;;28.74;79.50;153273.03;5092896;28;20185;-62
2022/09/04 06:16:20;;;;;;;4.40;4.10;;;;;;;28.21;80.27;153138.59;5092832;28;20270;-62
2022/09/04 06:19:14;;;;;;;4.95;4.68;;;;;;;26.87;89.73;152799.41;5092659;28;20184;-62
2022/09/04 06:22:16;;;;;;;4.28;3.90;;;;;;;25.88;95.36;152550.03;5092671;28;20227;-62
2022/09/04 06:25:15;;;;;;;3.95;3.85;;;;;;;25.44;100.00;152438.78;5092794;28;20202;-62
2022/09/04 06:28:02;;;;;;;4.85;3.55;;;;;;;25.36;100.00;152417.03;5089399;28;20204;-62
2022/09/04 06:30:38;;;;;;;6.70;3.45;;;;;;;25.28;100.00;152397.91;5092821;28;20665;-62
2022/09/04 06:33:39;;;;;;;3.20;3.10;;;;;;;25.07;100.00;152342.94;5092710;28;20211;-63
2022/09/04 06:36:41;;;;;;;2.90;2.80;;;;;;;24.61;100.00;152227.97;5092857;28;20190;-62
2022/09/04 06:39:45;;;;;;;3.72;3.42;;;;;;;24.44;100.00;152185.78;5092186;28;20184;-62
2022/09/04 06:42:27;;;;;;;3.47;3.28;;;;;;;24.27;100.00;152141.13;5091971;28;20569;-63
2022/09/04 06:45:09;;;;;;;3.38;3.28;;;;;;;24.62;100.00;152229.19;5092385;28;20187;-63
2022/09/04 06:47:51;;;;;;;3.25;3.05;;;;;;;25.36;100.00;152418.34;5092108;28;20231;-62
2022/09/04 06:50:26;;;;;;;2.75;2.65;;;;;;;26.42;94.91;152685.56;5092478;28;20184;-63
2022/09/04 06:53:13;;;;;;;2.72;2.58;;;;;;;27.34;86.42;152918.38;5092577;28;20566;-63
2022/09/04 06:55:48;;;;;;;2.70;2.60;;;;;;;27.57;83.20;152976.00;5092394;28;20238;-62
2022/09/04 06:58:42;;;;;;;2.92;2.80;;;;;;;28.81;75.52;153289.72;5092268;28;20195;-63
2022/09/04 07:01:16;;;;;;;2.50;2.40;;;;;;;29.07;72.69;153356.28;5091991;28;20207;-62
2022/09/04 07:03:57;;;;;;;2.50;2.40;;;;;;;29.23;71.56;153397.28;5092310;28;20583;-62
2022/09/04 07:06:35;;;;;;;2.55;2.35;;;;;;;29.49;71.41;153462.69;5091943;28;20271;-63
2022/09/04 07:09:10;;;;;;;2.65;2.55;;;;;;;28.52;73.93;153217.94;5092232;28;20541;-63
2022/09/04 07:12:02;;;;;;;2.60;2.50;;;;;;;27.67;83.07;153002.84;5091764;28;20190;-62
2022/09/04 07:14:43;;;;;;;2.80;2.70;;;;;;;27.37;86.09;152926.03;5092054;28;20196;-63
2022/09/04 07:17:18;;;;;;;2.90;2.80;;;;;;;27.21;88.77;152886.38;5091766;28;20222;-62
2022/09/04 07:20:01;;;;;;;2.60;2.50;;;;;;;26.76;88.37;152771.22;5090985;28;20278;-62
2022/09/04 07:23:01;;;;;;;3.03;2.65;;;;;;;26.91;93.28;152809.63;5091623;28;20195;-63
2022/09/04 07:25:41;;;;;;;2.80;2.55;;;;;;;26.52;92.31;152711.09;5091546;28;20283;-62
2022/09/04 07:28:19;;;;;;;2.80;2.70;;;;;;;26.30;97.05;152656.16;5091616;28;20188;-62
2022/09/04 07:30:53;;;;;;;3.00;2.90;;;;;;;26.52;95.51;152711.09;5091609;28;20188;-61
2022/09/04 07:33:26;;;;;;;3.20;3.10;;;;;;;26.52;97.73;152711.09;5092024;28;20276;-61
2022/09/04 07:36:06;;;;;;;3.30;3.10;;;;;;;26.11;95.29;152606.22;5091726;28;20210;-62
2022/09/04 07:38:43;;;;;;;3.58;3.28;;;;;;;25.39;100.00;152424.69;5090236;28;20211;-62
2022/09/04 07:41:15;;;;;;;2.78;2.58;;;;;;;25.59;100.00;152475.84;5091320;28;20330;-61
2022/09/04 07:43:50;;;;;;;3.70;3.60;;;;;;;25.40;100.00;152427.25;5091741;28;20571;-62
2022/09/04 07:46:25;;;;;;;2.90;2.80;;;;;;;25.37;100.00;152420.91;5091316;28;20231;-62
2022/09/04 07:48:57;;;;;;;4.05;3.75;;;;;;;24.48;100.00;152194.75;5091716;28;20196;-62
2022/09/04 07:51:31;;;;;;;3.28;3.00;;;;;;;25.00;100.00;152326.31;5091573;28;20627;-62
2022/09/04 07:54:29;;;;;;;3.90;3.80;;;;;;;25.12;100.00;152355.72;5091524;28;20559;-62
2022/09/04 07:57:10;;;;;;;4.25;4.05;;;;;;;25.62;100.00;152483.56;5091211;28;20184;-62
2022/09/04 07:59:54;;;;;;;3.70;3.60;;;;;;;26.21;100.00;152633.16;5091518;28;20626;-62
2022/09/04 08:02:34;;;;;;;3.30;3.20;;;;;;;26.48;99.30;152699.63;5091605;28;20211;-62
2022/09/04 08:05:18;;;;;;;3.35;3.25;;;;;;;26.65;95.98;152744.34;5091441;28;20261;-61
2022/09/04 08:08:03;;;;;;;2.95;2.85;;;;;;;26.87;96.25;152798.13;5091549;28;20191;-61
2022/09/04 08:10:34;;;;;;;2.90;2.70;;;;;;;26.70;96.05;152755.88;5091294;28;20184;-62
2022/09/04 08:13:17;;;;;;;2.40;2.30;;;;;;;26.49;94.60;152702.16;5091173;28;20184;-61
2022/09/04 08:15:54;;;;;;;2.88;2.78;;;;;;;26.16;96.23;152619.03;5091331;28;20709;-62
2022/09/04 08:18:56;;;;;;;2.90;2.80;;;;;;;26.15;99.72;152616.44;5090923;28;20200;-62
2022/09/04 08:21:28;;;;;;;2.28;2.20;;;;;;;26.26;99.47;152644.66;5090796;28;20237;-61
2022/09/04 08:24:26;;;;;;;2.25;2.15;;;;;;;26.49;96.55;152703.44;5091044;28;20180;-62
2022/09/04 08:27:05;;;;;;;2.38;2.10;;;;;;;26.61;96.39;152734.13;5090813;28;20192;-63
2022/09/04 08:29:56;;;;;;;2.28;2.15;;;;;;;26.66;94.19;152745.63;5091194;28;20188;-62
2022/09/04 08:32:41;;;;;;;2.60;2.50;;;;;;;25.18;100.00;152371.03;5094707;28;20199;-62
2022/09/04 08:35:18;;;;;;;2.63;2.53;;;;;;;25.29;100.00;152399.19;5094463;28;20196;-62
2022/09/04 08:38:02;;;;;;;3.35;3.00;;;;;;;25.36;100.00;152418.34;5094776;28;20585;-61
2022/09/04 08:40:58;;;;;;;2.53;2.53;;;;;;;25.13;100.00;152358.25;5094544;28;20208;-62
2022/09/04 08:43:36;;;;;;;2.90;2.63;;;;;;;25.12;100.00;152356.97;5094565;28;20188;-62
2022/09/04 08:46:38;;;;;;;2.22;2.22;;;;;;;25.84;100.00;152539.75;5094068;28;20235;-62
2022/09/04 08:49:41;;;;;;;2.75;2.65;;;;;;;26.30;99.57;152656.16;5094527;28;20554;-62
2022/09/04 08:52:51;;;;;;;2.50;2.30;;;;;;;26.40;98.90;152680.41;5071099;28;20253;-62
2022/09/04 08:55:59;;;;;;;2.90;2.80;;;;;;;26.15;100.00;152617.75;5050811;28;20290;-61
2022/09/04 08:58:57;;;;;;;2.70;2.60;;;;;;;25.90;100.00;152555.09;5093763;28;20265;-62
2022/09/04 09:02:03;;;;;;;2.63;2.40;;;;;;;25.67;100.00;152495.06;5072758;28;20223;-62
2022/09/04 09:05:20;;;;;;;3.42;3.33;;;;;;;25.31;100.00;152405.53;5067102;28;20206;-61
2022/09/04 09:08:11;;;;;;;2.78;2.58;;;;;;;24.79;100.00;152273.91;5031400;28;20190;-61
2022/09/04 09:10:52;;;;;;;2.60;2.50;;;;;;;24.08;100.00;152095.09;5030148;28;20256;-62
2022/09/04 09:13:49;;;;;;;2.45;2.35;;;;;;;23.77;100.00;152015.94;5083467;28;20199;-61
2022/09/04 09:16:22;;;;;;;2.35;2.28;;;;;;;23.44;100.00;151931.72;5093633;28;20194;-62
2022/09/04 09:19:08;;;;;;;2.33;2.30;;;;;;;23.47;100.00;151940.63;5093959;28;20176;-61
2022/09/04 09:21:44;;;;;;;2.90;2.80;;;;;;;23.83;100.00;152031.28;5093529;28;20214;-62
2022/09/04 09:24:44;;;;;;;2.50;2.40;;;;;;;24.04;100.00;152084.88;5093543;28;20195;-62
2022/09/04 09:27:40;;;;;;;2.35;2.33;;;;;;;24.29;100.00;152147.47;5080822;28;20196;-62
2022/09/04 09:30:09;;;;;;;2.72;2.53;;;;;;;24.74;100.00;152261.13;5092780;28;20653;-61
2022/09/04 09:33:13;;;;;;;2.75;2.65;;;;;;;24.99;100.00;152325.03;5092390;28;20200;-62
2022/09/04 09:36:01;;;;;;;3.38;3.28;;;;;;;25.08;100.00;152346.75;5092422;28;20188;-61
2022/09/04 09:38:47;;;;;;;4.03;3.92;;;;;;;24.92;100.00;152307.16;5090447;28;20578;-62
2022/09/04 09:42:01;;;;;;;4.47;4.28;;;;;;;24.92;100.00;152307.16;5092803;28;20200;-62
2022/09/04 09:45:05;;;;;;;4.43;4.22;;;;;;;25.03;100.00;152334.00;5093477;28;20190;-62
2022/09/04 09:48:01;;;;;;;4.38;4.28;;;;;;;24.88;100.00;152295.66;5092903;28;20288;-62
2022/09/04 09:50:54;;;;;;;4.30;4.20;;;;;;;25.20;100.00;152376.16;5090035;28;20200;-61
2022/09/04 09:53:57;;;;;;;4.57;4.47;;;;;;;25.61;100.00;152480.97;5092971;28;20187;-63
2022/09/04 09:56:55;;;;;;;4.43;4.22;;;;;;;26.00;100.00;152578.13;5091979;28;20200;-63
2022/09/04 09:59:47;;;;;;;3.25;3.15;;;;;;;26.31;100.00;152657.41;5093164;28;20191;-62
2022/09/04 10:02:40;;;;;;;3.20;3.10;;;;;;;25.83;100.00;152537.22;5092832;28;20214;-62
2022/09/04 10:05:43;;;;;;;3.30;3.20;;;;;;;26.00;100.00;152579.41;5091626;28;20199;-63
2022/09/04 10:08:49;;;;;;;3.80;3.70;;;;;;;26.09;100.00;152602.44;5092843;28;20195;-63
2022/09/04 10:11:42;;;;;;;4.70;4.38;;;;;;;26.09;100.00;152602.44;5092895;28;20237;-62
2022/09/04 10:14:39;;;;;;;4.13;4.03;;;;;;;25.81;100.00;152530.81;5092504;28;20207;-63
2022/09/04 10:17:32;;;;;;;3.80;3.70;;;;;;;25.52;100.00;152457.94;5075863;28;20638;-62
2022/09/04 10:20:32;;;;;;;3.60;3.50;;;;;;;25.33;100.00;152409.41;5079232;28;20207;-61
2022/09/04 10:23:26;;;;;;;3.50;3.20;;;;;;;25.32;100.00;152406.81;5092349;28;20204;-62
2022/09/04 10:26:15;;;;;;;3.92;3.72;;;;;;;25.64;100.00;152488.63;5092502;28;20194;-61
2022/09/04 10:29:22;;;;;;;4.00;3.65;;;;;;;25.72;100.00;152509.09;5092308;28;20184;-62
2022/09/04 10:32:22;;;;;;;3.67;3.47;;;;;;;25.47;100.00;152445.13;5092507;28;20192;-62
2022/09/04 10:35:09;;;;;;;4.60;4.20;;;;;;;25.80;100.00;152529.53;5071914;28;20241;-62
2022/09/04 10:37:58;;;;;;;5.22;4.90;;;;;;;25.77;100.00;152520.59;5092411;28;20630;-62
2022/09/04 10:40:37;;;;;;;4.80;4.50;;;;;;;25.75;100.00;152515.50;5092047;28;20184;-63
2022/09/04 10:43:38;;;;;;;2.83;2.72;;;;;;;25.31;100.00;152405.53;5092056;28;20303;-62
2022/09/04 10:46:14;;;;;;;3.42;3.20;;;;;;;25.46;100.00;152443.84;5092155;28;20249;-61
2022/09/04 10:49:16;;;;;;;4.80;4.60;;;;;;;25.20;100.00;152376.16;5092296;28;20230;-62
2022/09/04 10:52:05;;;;;;;4.00;3.72;;;;;;;25.78;100.00;152523.16;5091892;28;20191;-62
2022/09/04 10:55:07;;;;;;;3.70;3.40;;;;;;;25.93;100.00;152562.75;5091066;28;20184;-62
2022/09/04 10:57:52;;;;;;;3.30;2.97;;;;;;;25.90;100.00;152553.81;5091703;28;20227;-62
2022/09/04 11:00:20;;;;;;;2.78;2.67;;;;;;;25.56;100.00;152466.91;5090992;28;20586;-62
2022/09/04 11:03:14;;;;;;;2.92;2.70;;;;;;;25.53;100.00;152460.53;5091914;28;20582;-62
2022/09/04 11:06:22;;;;;;;4.15;2.58;;;;;;;25.58;100.00;152472.03;5091663;28;20194;-62
2022/09/04 11:09:17;;;;;;;2.17;2.10;;;;;;;25.59;100.00;152475.84;5091914;28;20638;-62
2022/09/04 11:12:06;;;;;;;2.47;2.40;;;;;;;25.60;100.00;152477.13;5088539;28;20196;-62
2022/09/04 11:14:51;;;;;;;1.92;1.83;;;;;;;25.42;100.00;152433.63;5092008;28;20184;-62
2022/09/04 11:17:50;;;;;;;2.50;2.40;;;;;;;25.40;100.00;152428.56;5091904;28;20188;-62
2022/09/04 11:20:48;;;;;;;2.38;2.28;;;;;;;25.65;100.00;152489.91;5091621;28;20199;-61
2022/09/04 11:23:48;;;;;;;2.00;1.90;;;;;;;25.89;100.00;152552.53;5085711;28;20611;-62
2022/09/04 11:26:48;;;;;;;4.95;2.40;;;;;;;25.95;100.00;152565.31;5065986;28;20199;-62
2022/09/04 11:29:33;;;;;;;1.88;1.88;;;;;;;26.02;100.00;152583.22;5091479;28;20185;-61
2022/09/04 11:32:33;;;;;;;2.05;1.95;;;;;;;26.16;99.83;152619.03;5091789;28;20191;-62
2022/09/04 11:35:24;;;;;;;1.45;1.45;;;;;;;26.17;100.00;152622.88;5090247;28;20255;-62
2022/09/04 11:38:19;;;;;;;1.83;1.73;;;;;;;25.97;98.70;152570.47;5091428;28;20226;-62
2022/09/04 11:41:27;;;;;;;3.60;2.00;;;;;;;26.25;98.25;152642.09;5091703;28;20234;-61
2022/09/04 11:44:26;;;;;;;1.60;1.60;;;;;;;26.34;96.80;152665.09;5086730;28;20196;-62
2022/09/04 11:47:14;;;;;;;1.67;1.58;;;;;;;26.42;95.71;152685.56;5038582;28;20235;-62
2022/09/04 11:50:03;;;;;;;1.80;1.80;;;;;;;26.35;94.90;152667.69;5091639;28;20672;-62
2022/09/04 11:52:49;;;;;;;2.20;2.10;;;;;;;25.65;98.43;152491.22;5091265;28;20180;-61
2022/09/04 11:55:39;;;;;;;1.95;1.95;;;;;;;25.91;99.33;152557.69;5091339;28;20188;-61
2022/09/04 11:58:30;;;;;;;1.80;1.80;;;;;;;26.00;97.77;152579.41;5091694;28;20207;-62
2022/09/04 12:01:03;;;;;;;1.70;1.60;;;;;;;26.07;99.05;152596.00;5091465;28;20631;-62
2022/09/04 12:03:58;;;;;;;3.05;2.28;;;;;;;25.91;100.00;152557.69;5091115;28;20300;-62
2022/09/04 12:06:36;;;;;;;2.30;2.20;;;;;;;25.68;100.00;152498.84;5094779;28;20622;-61
2022/09/04 12:09:43;;;;;;;2.25;2.20;;;;;;;25.86;100.00;152544.88;5094090;28;20184;-62
2022/09/04 12:12:40;;;;;;;2.13;2.03;;;;;;;25.84;100.00;152539.75;5095010;28;20230;-62
2022/09/04 12:15:49;;;;;;;2.75;2.40;;;;;;;25.82;100.00;152534.66;5094786;28;20188;-62
2022/09/04 12:19:05;;;;;;;2.33;2.28;;;;;;;25.91;100.00;152557.69;5094018;28;20202;-62
2022/09/04 12:22:16;;;;;;;2.42;2.33;;;;;;;25.91;100.00;152557.69;5094691;28;20210;-62
2022/09/04 12:25:16;;;;;;;1.90;1.85;;;;;;;25.61;100.00;152480.97;5012723;28;20207;-62
2022/09/04 12:28:14;;;;;;;2.45;1.88;;;;;;;25.57;100.00;152469.47;5091781;28;20198;-62
2022/09/04 12:30:58;;;;;;;1.77;1.67;;;;;;;25.65;100.00;152489.91;5092532;28;20202;-62
2022/09/04 12:34:09;;;;;;;2.20;2.10;;;;;;;25.55;100.00;152465.63;5094937;28;20210;-62
2022/09/04 12:37:22;;;;;;;2.00;1.90;;;;;;;25.33;100.00;152409.41;5087833;28;20203;-62
2022/09/04 12:40:28;;;;;;;1.85;1.40;;;;;;;25.40;100.00;152427.25;5032092;28;20192;-63
2022/09/04 12:43:04;;;;;;;1.92;1.83;;;;;;;25.42;100.00;152433.63;5069678;28;20223;-61